Time;durP1;ratioP1;P1;durP2;ratioP2;P2;SDS_P1;SDS_P2;PMS_P1;PMS_P2;Temp;Humidity;BMP_temperature;BMP_pressure;BME280_temperature;BME280_humidity;BME280_pressure;Samples;Min_cycle;Max_cycle;Signal;HPM_P1;HPM_P2
2021/12/20 00:02:00;;;;;;;16.02;9.40;;;;;;;3.44;82.28;100141.34;5045549;28;20050;-77
2021/12/20 00:04:49;;;;;;;17.23;9.68;;;;;;;3.49;82.39;100152.00;5048344;28;20442;-77
2021/12/20 00:07:38;;;;;;;17.25;9.10;;;;;;;3.49;82.16;100158.03;5038407;28;20514;-76
2021/12/20 00:10:27;;;;;;;18.73;9.57;;;;;;;3.16;82.31;100105.59;5038130;28;20144;-76
2021/12/20 00:13:13;;;;;;;15.57;9.00;;;;;;;3.50;81.74;100159.66;5049795;28;20444;-77
2021/12/20 00:15:58;;;;;;;17.02;9.10;;;;;;;3.45;81.63;100151.59;5038509;28;20105;-77
2021/12/20 00:18:44;;;;;;;17.45;8.68;;;;;;;3.43;82.09;100150.97;5035373;28;20403;-77
2021/12/20 00:21:30;;;;;;;15.43;8.70;;;;;;;3.45;81.31;100148.16;5041838;28;20127;-77
2021/12/20 00:24:19;;;;;;;13.40;7.80;;;;;;;3.41;81.94;100139.94;5043632;28;20111;-77
2021/12/20 00:27:07;;;;;;;13.53;8.63;;;;;;;3.47;81.77;100157.41;5033612;28;20039;-76
2021/12/20 00:29:53;;;;;;;14.33;8.80;;;;;;;3.37;81.97;100139.47;5039540;28;20255;-77
2021/12/20 00:32:40;;;;;;;15.00;8.60;;;;;;;3.39;81.47;100140.09;5039039;28;20269;-76
2021/12/20 00:35:26;;;;;;;15.10;8.27;;;;;;;3.44;81.87;100160.38;5042882;28;20033;-77
2021/12/20 00:41:16;;;;;;;16.50;8.77;;;;;;;3.32;81.80;100135.81;5045879;28;20033;-77
2021/12/20 00:44:03;;;;;;;17.42;9.10;;;;;;;3.43;81.72;100152.75;5043702;28;20032;-76
2021/12/20 00:46:48;;;;;;;14.75;8.57;;;;;;;3.36;81.61;100150.88;5047093;28;20037;-76
2021/12/20 00:49:34;;;;;;;15.30;8.65;;;;;;;3.44;81.59;100164.78;5044581;28;20036;-77
2021/12/20 00:52:20;;;;;;;16.58;9.50;;;;;;;3.37;81.82;100157.69;5038522;28;20550;-77
2021/12/20 00:55:07;;;;;;;14.80;8.73;;;;;;;3.38;81.86;100158.53;5036108;28;20067;-76
2021/12/20 00:57:55;;;;;;;17.35;9.27;;;;;;;3.37;81.62;100160.28;5051121;28;20061;-77
2021/12/20 01:00:44;;;;;;;15.32;8.73;;;;;;;3.33;81.63;100153.06;5040840;28;20452;-77
2021/12/20 01:03:32;;;;;;;1999.90;786.13;;;;;;;3.40;82.83;100156.53;5045484;28;20065;-76
2021/12/20 01:06:18;;;;;;;26.37;13.13;;;;;;;3.48;84.26;100137.41;5045880;28;20045;-77
2021/12/20 01:09:07;;;;;;;23.98;12.70;;;;;;;3.56;83.06;100168.50;5034511;28;20108;-77
2021/12/20 01:12:00;;;;;;;;;;;;;;;3.40;81.91;100170.34;5048337;28;20052;-76
2021/12/20 01:14:47;;;;;;;14.18;8.75;;;;;;;3.33;82.16;100153.88;5041801;28;19956;-76
2021/12/20 01:17:33;;;;;;;16.45;8.07;;;;;;;3.31;81.81;100157.63;5047428;28;20041;-78
2021/12/20 01:20:21;;;;;;;15.57;8.75;;;;;;;3.26;81.82;100141.78;5046400;28;20067;-77
2021/12/20 01:23:08;;;;;;;14.00;8.00;;;;;;;3.30;82.08;100159.41;5039814;28;20124;-76
2021/12/20 01:25:54;;;;;;;13.10;7.72;;;;;;;3.26;81.80;100154.78;5036580;28;20033;-73
2021/12/20 01:28:43;;;;;;;12.82;7.93;;;;;;;3.25;81.84;100147.94;5040744;28;20040;-73
2021/12/20 01:31:28;;;;;;;13.75;8.43;;;;;;;3.23;82.10;100150.72;5045439;28;20041;-73
2021/12/20 01:34:14;;;;;;;14.20;7.97;;;;;;;3.18;81.61;100148.69;5037538;28;20396;-73
2021/12/20 01:37:00;;;;;;;13.40;7.85;;;;;;;3.12;81.45;100146.81;5042617;28;20037;-73
2021/12/20 01:39:46;;;;;;;12.93;8.15;;;;;;;3.12;81.46;100141.59;5033541;28;20403;-73
2021/12/20 01:42:34;;;;;;;14.18;8.50;;;;;;;3.12;81.36;100149.41;5039332;28;20048;-73
2021/12/20 01:45:23;;;;;;;14.80;8.05;;;;;;;3.12;81.50;100157.22;5032408;28;20037;-73
2021/12/20 01:48:12;;;;;;;12.50;7.65;;;;;;;3.10;81.75;100154.00;5039524;28;20076;-73
2021/12/20 01:53:52;;;;;;;11.93;7.63;;;;;;;3.05;81.71;100145.13;5046114;28;20044;-73
2021/12/20 01:56:41;;;;;;;14.52;8.07;;;;;;;3.06;81.54;100144.13;5036475;28;20063;-73
2021/12/20 01:59:28;;;;;;;15.40;8.00;;;;;;;3.04;81.92;100146.94;5033088;28;20056;-73
2021/12/20 02:02:14;;;;;;;14.63;8.23;;;;;;;3.09;81.57;100146.34;5039246;28;20110;-73
2021/12/20 02:05:11;;;;;;;14.07;8.07;;;;;;;3.10;81.47;100148.78;5040059;28;20044;-73
2021/12/20 02:08:03;;;;;;;13.55;8.13;;;;;;;3.08;81.43;100142.16;5041892;28;20051;-74
2021/12/20 02:10:53;;;;;;;13.85;8.00;;;;;;;3.01;81.90;100138.66;5039904;28;20072;-73
2021/12/20 02:13:42;;;;;;;14.05;7.80;;;;;;;3.10;81.83;100154.00;5037936;28;20089;-73
2021/12/20 02:16:28;;;;;;;14.27;7.93;;;;;;;2.84;81.92;100135.47;5040833;28;20429;-73
2021/12/20 02:19:15;;;;;;;14.00;8.10;;;;;;;3.02;82.26;100151.50;5053443;28;20116;-73
2021/12/20 02:22:02;;;;;;;13.73;8.38;;;;;;;3.00;82.13;100148.28;5040324;28;20514;-73
2021/12/20 02:24:47;;;;;;;14.27;7.78;;;;;;;2.99;82.46;100149.25;5038789;28;20090;-72
2021/12/20 02:27:33;;;;;;;16.02;8.57;;;;;;;2.96;82.72;100150.41;5039221;28;20030;-73
2021/12/20 02:39:05;;;;;;;12.75;7.57;;;;;;;2.81;82.84;100144.44;5040121;28;20075;-73
2021/12/20 02:41:50;;;;;;;15.52;8.25;;;;;;;2.84;82.91;100156.25;5040139;28;20116;-73
2021/12/20 02:44:36;;;;;;;12.57;7.47;;;;;;;2.86;83.01;100162.09;5046455;28;20092;-72
2021/12/20 02:47:28;;;;;;;13.40;7.70;;;;;;;2.86;82.51;100155.09;5042177;28;20041;-72
2021/12/20 02:50:15;;;;;;;13.52;8.32;;;;;;;2.86;82.65;100149.88;5040369;28;20583;-73
2021/12/20 02:53:00;;;;;;;16.90;8.23;;;;;;;2.90;83.05;100163.34;5038362;28;20049;-73
2021/12/20 02:55:46;;;;;;;16.15;8.07;;;;;;;2.88;83.28;100170.53;5036402;28;20064;-73
2021/12/20 02:58:32;;;;;;;13.85;8.48;;;;;;;2.83;83.04;100157.25;5040738;28;20034;-73
2021/12/20 03:01:18;;;;;;;15.52;8.73;;;;;;;2.67;82.89;100132.25;5043064;28;20029;-72
2021/12/20 03:04:05;;;;;;;14.90;8.25;;;;;;;2.84;82.96;100153.66;5039668;28;20053;-73
2021/12/20 03:06:58;;;;;;;13.88;8.52;;;;;;;2.89;82.94;100159.13;5044359;28;20041;-73
2021/12/20 03:09:50;;;;;;;13.73;7.95;;;;;;;2.89;83.02;100153.91;5048960;28;20061;-73
2021/12/20 03:12:36;;;;;;;12.63;7.25;;;;;;;2.86;83.42;100162.09;5044906;28;20044;-73
2021/12/20 03:15:25;;;;;;;15.27;7.88;;;;;;;2.90;82.94;100177.16;5042241;28;20033;-73
2021/12/20 03:18:11;;;;;;;15.52;7.97;;;;;;;2.80;82.91;100166.19;5044649;28;20067;-73
2021/12/20 03:20:56;;;;;;;12.82;7.78;;;;;;;2.88;83.15;100173.94;5040418;28;20078;-72
2021/12/20 03:23:42;;;;;;;14.13;7.80;;;;;;;2.83;82.79;100170.25;5038350;28;20037;-73
2021/12/20 03:26:28;;;;;;;11.48;7.18;;;;;;;2.92;82.43;100183.00;5047828;28;20041;-73
2021/12/20 03:29:14;;;;;;;14.15;8.30;;;;;;;2.86;82.92;100175.09;5046337;28;20055;-73
2021/12/20 03:32:00;;;;;;;13.93;7.63;;;;;;;2.75;82.77;100169.38;5045672;28;20111;-73
2021/12/20 03:34:45;;;;;;;13.43;7.30;;;;;;;2.88;83.39;100188.72;5036717;28;20052;-73
2021/12/20 03:37:32;;;;;;;12.57;8.02;;;;;;;2.92;83.09;100201.19;5044709;28;20029;-73
2021/12/20 03:40:18;;;;;;;13.50;7.60;;;;;;;2.82;83.15;100179.84;5047527;28;20041;-72
2021/12/20 03:43:05;;;;;;;12.35;7.60;;;;;;;2.92;82.77;100205.56;5048524;28;20029;-73
2021/12/20 03:45:57;;;;;;;12.07;7.43;;;;;;;2.91;82.51;100207.38;5041280;28;20102;-73
2021/12/20 03:48:43;;;;;;;12.32;7.63;;;;;;;2.93;82.80;100209.78;5044662;28;20108;-73
2021/12/20 03:51:29;;;;;;;12.60;7.13;;;;;;;2.88;83.24;100205.13;5051805;28;20064;-72
2021/12/20 03:54:14;;;;;;;13.50;7.95;;;;;;;2.85;82.55;100196.88;5038874;28;20779;-73
2021/12/20 03:57:00;;;;;;;11.93;7.10;;;;;;;2.80;82.86;100207.81;5040407;28;20557;-73
2021/12/20 03:59:47;;;;;;;16.90;8.40;;;;;;;2.78;82.53;100199.41;5035373;28;20037;-72
2021/12/20 04:02:39;;;;;;;11.73;7.40;;;;;;;2.75;82.80;100190.16;5039562;28;20107;-73
2021/12/20 04:05:25;;;;;;;12.95;7.78;;;;;;;2.64;83.03;100156.00;5042546;28;20033;-72
2021/12/20 04:08:10;;;;;;;13.82;7.70;;;;;;;2.89;83.29;100208.53;5039828;28;20711;-73
2021/12/20 04:10:57;;;;;;;16.27;7.85;;;;;;;2.89;82.80;100201.53;5033018;28;20068;-73
2021/12/20 04:13:43;;;;;;;12.65;7.22;;;;;;;2.86;82.69;100203.69;5038391;28;20037;-73
2021/12/20 04:16:29;;;;;;;14.90;7.88;;;;;;;2.92;82.91;100221.16;5041423;28;20882;-73
2021/12/20 04:19:15;;;;;;;15.02;7.35;;;;;;;2.83;82.52;100224.88;5039967;28;20522;-72
2021/12/20 04:22:00;;;;;;;11.60;7.15;;;;;;;2.84;82.59;100234.28;5042770;28;20067;-73
2021/12/20 04:24:46;;;;;;;14.18;7.95;;;;;;;2.88;82.52;100232.94;5040577;28;20071;-73
2021/12/20 04:27:32;;;;;;;14.77;7.57;;;;;;;2.79;82.21;100213.19;5046093;28;20037;-74
2021/12/20 04:30:18;;;;;;;13.48;7.18;;;;;;;2.79;82.83;100208.81;5032908;28;20521;-73
2021/12/20 04:33:04;;;;;;;14.40;7.30;;;;;;;2.64;82.65;100189.78;5048515;28;20036;-73
2021/12/20 04:35:49;;;;;;;13.48;7.60;;;;;;;2.89;82.50;100235.34;5043688;28;20074;-73
2021/12/20 04:38:36;;;;;;;13.45;7.57;;;;;;;2.83;82.22;100240.47;5040656;28;20037;-73
2021/12/20 04:41:22;;;;;;;13.20;7.57;;;;;;;2.85;82.14;100254.06;5035881;28;20029;-73
2021/12/20 04:44:07;;;;;;;14.15;6.78;;;;;;;2.81;82.18;100256.25;5042882;28;20037;-76
2021/12/20 04:46:53;;;;;;;13.90;7.72;;;;;;;2.90;82.37;100262.97;5037242;28;20418;-77
2021/12/20 04:49:39;;;;;;;12.70;7.15;;;;;;;2.77;82.33;100255.78;5044276;28;20526;-77
2021/12/20 04:52:26;;;;;;;12.98;7.53;;;;;;;2.92;82.41;100283.59;5038882;28;20434;-76
2021/12/20 04:55:13;;;;;;;13.02;6.97;;;;;;;2.94;82.55;100281.63;5039692;28;20042;-77
2021/12/20 04:58:01;;;;;;;15.05;6.85;;;;;;;2.89;82.17;100289.97;5039362;28;20064;-77
2021/12/20 05:00:47;;;;;;;13.05;7.70;;;;;;;2.83;82.68;100285.47;5036714;28;20040;-77
2021/12/20 05:03:33;;;;;;;13.40;7.50;;;;;;;2.65;82.55;100257.19;5037656;28;20081;-76
2021/12/20 05:06:18;;;;;;;14.02;7.75;;;;;;;2.77;82.80;100292.19;5045024;28;20592;-76
2021/12/20 05:09:05;;;;;;;13.70;7.80;;;;;;;2.82;83.46;100296.03;5038413;28;20064;-76
2021/12/20 05:11:58;;;;;;;12.68;7.65;;;;;;;2.82;82.89;100309.84;5038673;28;20115;-76
2021/12/20 05:14:44;;;;;;;15.43;8.43;;;;;;;2.81;83.03;100299.66;5043662;28;20060;-77
2021/12/20 05:17:30;;;;;;;18.95;8.57;;;;;;;2.59;83.29;100273.50;5054813;28;20037;-77
2021/12/20 05:20:16;;;;;;;14.40;8.10;;;;;;;2.84;83.60;100322.69;5034957;28;20072;-76
2021/12/20 05:23:04;;;;;;;15.02;7.75;;;;;;;2.80;83.65;100332.63;5041191;28;20040;-76
2021/12/20 05:25:50;;;;;;;17.52;8.68;;;;;;;2.81;83.40;100331.66;5039126;28;20068;-77
2021/12/20 05:28:36;;;;;;;11.88;7.32;;;;;;;2.84;83.81;100340.88;5046469;28;20032;-76
2021/12/20 05:31:21;;;;;;;14.10;7.68;;;;;;;2.84;83.56;100343.50;5038342;28;20108;-73
2021/12/20 05:34:07;;;;;;;16.10;8.02;;;;;;;2.76;82.93;100333.97;5035082;28;20495;-73
2021/12/20 05:36:53;;;;;;;14.55;7.55;;;;;;;2.71;83.42;100334.50;5032822;28;20040;-72
2021/12/20 05:39:40;;;;;;;13.40;7.55;;;;;;;2.82;82.93;100350.66;5033630;28;20041;-73
2021/12/20 05:42:26;;;;;;;13.32;7.50;;;;;;;2.72;83.36;100341.28;5030674;28;20064;-73
2021/12/20 05:45:13;;;;;;;13.07;7.18;;;;;;;2.70;83.19;100351.06;5045069;28;20041;-73
2021/12/20 05:47:58;;;;;;;13.73;7.30;;;;;;;2.67;83.17;100359.22;5040843;28;20055;-73
2021/12/20 05:50:44;;;;;;;14.40;7.72;;;;;;;2.66;83.92;100360.22;5037681;28;20071;-74
2021/12/20 05:53:30;;;;;;;13.38;7.97;;;;;;;2.69;83.40;100362.47;5039116;28;20044;-75
2021/12/20 05:56:16;;;;;;;13.85;7.32;;;;;;;2.57;83.48;100347.44;5041916;28;20431;-74
2021/12/20 05:59:02;;;;;;;13.32;7.38;;;;;;;2.65;82.95;100371.56;5034734;28;20099;-74
2021/12/20 06:01:48;;;;;;;11.77;6.90;;;;;;;2.66;83.17;100385.38;5041801;28;20535;-73
2021/12/20 06:04:34;;;;;;;13.35;6.32;;;;;;;2.67;83.31;100385.22;5036715;28;20064;-74
2021/12/20 06:07:20;;;;;;;11.90;6.28;;;;;;;2.58;82.79;100381.06;5037153;28;20125;-74
2021/12/20 06:10:08;;;;;;;10.90;6.05;;;;;;;2.59;83.52;100374.88;5047905;28;20147;-74
2021/12/20 06:12:54;;;;;;;12.52;5.90;;;;;;;2.61;83.33;100378.13;5037079;28;20036;-73
2021/12/20 06:15:40;;;;;;;15.35;5.95;;;;;;;2.62;83.14;100384.94;5039102;28;20052;-74
2021/12/20 06:18:26;;;;;;;18.13;8.07;;;;;;;2.52;82.47;100382.56;5043973;28;20036;-74
2021/12/20 06:21:11;;;;;;;17.48;9.00;;;;;;;2.53;82.59;100388.56;5041694;28;20462;-74
2021/12/20 06:23:57;;;;;;;15.27;8.27;;;;;;;2.46;82.74;100382.44;5047340;28;20407;-77
2021/12/20 06:26:43;;;;;;;15.15;8.18;;;;;;;2.49;82.85;100403.72;5040078;28;20038;-76
2021/12/20 06:29:28;;;;;;;17.65;8.65;;;;;;;2.38;83.05;100388.50;5038271;28;20029;-76
2021/12/20 06:32:14;;;;;;;14.98;7.38;;;;;;;2.38;82.88;100396.28;5040948;28;20091;-77
2021/12/20 06:35:00;;;;;;;15.48;7.47;;;;;;;2.45;83.24;100415.41;5043638;28;20061;-77
2021/12/20 06:37:59;;;;;;;13.52;7.53;;;;;;;2.45;83.23;100402.41;5046784;28;20490;-76
2021/12/20 06:40:45;;;;;;;14.50;7.57;;;;;;;2.42;82.84;100414.94;5042784;28;20029;-77
2021/12/20 06:43:32;;;;;;;12.20;6.30;;;;;;;2.30;82.62;100402.34;5038147;28;20368;-77
2021/12/20 06:46:20;;;;;;;11.48;6.80;;;;;;;2.45;82.55;100432.81;5039422;28;20122;-77
2021/12/20 06:49:09;;;;;;;10.43;6.45;;;;;;;2.41;82.46;100432.31;5041194;28;20491;-77
2021/12/20 06:51:59;;;;;;;13.35;6.40;;;;;;;2.48;82.18;100446.25;5038047;28;20087;-78
2021/12/20 06:54:45;;;;;;;15.65;6.47;;;;;;;2.44;81.97;100450.19;5032739;28;20065;-77
2021/12/20 06:57:31;;;;;;;12.00;6.20;;;;;;;2.42;80.90;100452.16;5042001;28;20033;-78
2021/12/20 07:00:17;;;;;;;17.00;8.10;;;;;;;2.46;81.30;100465.59;5035405;28;20037;-77
2021/12/20 07:03:04;;;;;;;17.90;8.32;;;;;;;2.39;80.84;100454.25;5044121;28;20071;-76
2021/12/20 07:05:49;;;;;;;20.65;10.02;;;;;;;2.43;81.13;100473.75;5046458;28;20045;-76
2021/12/20 07:08:35;;;;;;;21.45;9.40;;;;;;;2.44;80.95;100463.19;5037028;28;20112;-76
2021/12/20 07:11:21;;;;;;;26.17;9.48;;;;;;;2.22;80.18;100440.53;5042156;28;20037;-77
2021/12/20 07:14:08;;;;;;;24.33;8.77;;;;;;;2.55;80.70;100485.38;5036321;28;20033;-77
2021/12/20 07:16:55;;;;;;;18.83;8.05;;;;;;;2.55;80.52;100499.19;5038921;28;20552;-77
2021/12/20 07:19:40;;;;;;;17.23;7.90;;;;;;;2.51;80.15;100486.69;5036945;28;20038;-78
2021/12/20 07:22:26;;;;;;;15.63;6.80;;;;;;;2.42;79.66;100472.09;5045850;28;20098;-78
2021/12/20 07:25:12;;;;;;;13.75;6.63;;;;;;;2.58;79.92;100492.03;5042363;28;20052;-78
2021/12/20 07:27:58;;;;;;;11.68;5.97;;;;;;;2.46;79.33;100481.19;5046471;28;20034;-77
2021/12/20 07:30:48;;;;;;;24.20;9.75;;;;;;;2.53;79.09;100482.94;5042843;28;20033;-77
2021/12/20 07:33:33;;;;;;;18.00;8.60;;;;;;;2.48;79.38;100474.84;5052819;28;20087;-77
2021/12/20 07:36:22;;;;;;;12.52;6.90;;;;;;;2.63;79.61;100495.72;5042487;28;20041;-78
2021/12/20 07:39:07;;;;;;;16.63;7.85;;;;;;;2.55;79.43;100482.78;5041548;28;20111;-76
2021/12/20 07:41:53;;;;;;;15.13;6.80;;;;;;;2.62;79.59;100499.31;5050732;28;20046;-76
2021/12/20 07:44:39;;;;;;;21.00;8.00;;;;;;;2.68;79.46;100510.81;5038972;28;20041;-77
2021/12/20 07:47:25;;;;;;;21.83;8.05;;;;;;;2.66;79.39;100517.97;5046755;28;20033;-77
2021/12/20 07:50:11;;;;;;;23.23;7.72;;;;;;;2.69;79.33;100518.44;5044237;28;20495;-77
2021/12/20 07:52:57;;;;;;;24.00;8.02;;;;;;;2.70;79.18;100519.25;5045957;28;20411;-78
2021/12/20 07:55:43;;;;;;;22.98;9.70;;;;;;;2.66;79.19;100511.00;5047347;28;20061;-77
2021/12/20 07:58:29;;;;;;;27.30;9.15;;;;;;;2.71;79.28;100518.28;5048973;28;20066;-76
2021/12/20 08:01:16;;;;;;;21.25;8.25;;;;;;;2.71;79.21;100518.28;5044823;28;20059;-78
2021/12/20 08:04:03;;;;;;;13.15;6.93;;;;;;;2.71;78.94;100529.50;5050065;28;20045;-78
2021/12/20 08:06:49;;;;;;;22.42;7.88;;;;;;;2.75;78.66;100540.34;5048874;28;20048;-77
2021/12/20 08:09:35;;;;;;;20.65;8.18;;;;;;;2.77;78.29;100535.81;5049516;28;20399;-76
2021/12/20 08:12:21;;;;;;;17.27;7.97;;;;;;;2.81;78.94;100544.09;5048695;28;20116;-76
2021/12/20 08:15:07;;;;;;;12.05;6.78;;;;;;;2.73;78.42;100537.09;5049125;28;20072;-76
2021/12/20 08:17:54;;;;;;;16.65;7.13;;;;;;;2.85;78.38;100561.78;5049254;28;20056;-78
2021/12/20 08:20:40;;;;;;;14.88;7.15;;;;;;;2.85;77.90;100559.19;5037292;28;20064;-76
2021/12/20 08:23:26;;;;;;;16.20;8.18;;;;;;;2.85;78.19;100547.94;5044597;28;20395;-76
2021/12/20 08:26:11;;;;;;;15.80;7.43;;;;;;;2.86;77.61;100547.78;5035681;28;20038;-77
2021/12/20 08:28:57;;;;;;;16.23;6.68;;;;;;;2.76;77.50;100537.59;5046219;28;20078;-78
2021/12/20 08:31:43;;;;;;;19.60;6.13;;;;;;;2.93;76.22;100560.94;5045113;28;20112;-77
2021/12/20 08:34:31;;;;;;;14.60;6.18;;;;;;;3.08;75.89;100571.41;5044278;28;20049;-77
2021/12/20 08:37:16;;;;;;;21.00;8.40;;;;;;;3.11;76.38;100561.47;5043693;28;20029;-78
2021/12/20 08:40:08;;;;;;;17.33;8.13;;;;;;;3.07;75.64;100539.38;5045254;28;20033;-79
2021/12/20 08:42:53;;;;;;;14.13;6.93;;;;;;;3.31;75.76;100572.25;5042904;28;20040;-78
2021/12/20 08:45:40;;;;;;;10.20;5.65;;;;;;;3.36;75.72;100572.53;5042483;28;20036;-78
2021/12/20 08:48:26;;;;;;;12.43;6.03;;;;;;;3.35;75.80;100580.50;5041581;28;20128;-76
2021/12/20 08:51:12;;;;;;;12.02;6.72;;;;;;;3.38;76.53;100585.38;5042535;28;20064;-76
2021/12/20 08:53:58;;;;;;;15.10;7.43;;;;;;;3.37;77.16;100586.34;5042408;28;20103;-76
2021/12/20 08:56:44;;;;;;;12.38;6.90;;;;;;;3.38;77.99;100580.19;5043155;28;20034;-75
2021/12/20 08:59:31;;;;;;;11.90;6.18;;;;;;;3.49;78.00;100592.78;5035825;28;20041;-75
2021/12/20 09:02:17;;;;;;;10.65;6.30;;;;;;;3.57;78.34;100600.53;5036585;28;20124;-76
2021/12/20 09:05:03;;;;;;;15.63;8.02;;;;;;;3.58;77.85;100586.53;5040651;28;20128;-77
2021/12/20 09:07:50;;;;;;;12.90;6.25;;;;;;;3.74;77.26;100598.63;5049974;28;20041;-76
2021/12/20 09:10:37;;;;;;;17.13;6.75;;;;;;;3.72;77.43;100597.97;5048084;28;20037;-73
2021/12/20 09:13:23;;;;;;;89.07;22.23;;;;;;;3.72;78.52;100586.75;5042101;28;20067;-72
2021/12/20 09:16:08;;;;;;;13.52;7.13;;;;;;;3.75;75.54;100576.78;5037241;28;20037;-73
2021/12/20 09:18:54;;;;;;;16.20;6.10;;;;;;;3.77;76.21;100579.22;5044292;28;20060;-72
2021/12/20 09:21:41;;;;;;;12.50;6.93;;;;;;;3.66;77.71;100556.19;5044754;28;20037;-72
2021/12/20 09:24:27;;;;;;;13.40;6.85;;;;;;;3.95;76.38;100586.72;5034499;28;20033;-72
2021/12/20 09:27:13;;;;;;;10.73;5.80;;;;;;;4.01;76.88;100592.03;5048421;28;20503;-72
2021/12/20 09:29:58;;;;;;;12.35;6.22;;;;;;;3.82;76.77;100561.28;5036256;28;20411;-73
2021/12/20 09:32:44;;;;;;;17.25;6.03;;;;;;;4.06;75.82;100604.53;5034998;28;20040;-73
2021/12/20 09:35:32;;;;;;;10.45;4.85;;;;;;;3.94;75.56;100585.91;5043393;28;20036;-73
2021/12/20 09:38:19;;;;;;;10.07;5.13;;;;;;;3.95;75.52;100586.72;5043338;28;22122;-73
2021/12/20 09:43:54;;;;;;;12.38;4.70;;;;;;;4.05;76.32;100577.66;5038246;28;20094;-72
2021/12/20 09:46:40;;;;;;;11.52;5.82;;;;;;;4.22;74.45;100593.16;5036719;28;20041;-71
2021/12/20 09:49:28;;;;;;;20.88;7.15;;;;;;;4.21;72.27;100581.94;5041210;28;20036;-71
2021/12/20 09:52:13;;;;;;;15.60;5.07;;;;;;;4.30;71.19;100593.06;5041054;28;20029;-72
2021/12/20 09:54:59;;;;;;;10.88;4.57;;;;;;;4.39;70.55;100578.94;5040942;28;20033;-71
2021/12/20 09:57:48;;;;;;;7.85;4.20;;;;;;;4.44;71.17;100579.22;5041410;28;20036;-71
2021/12/20 10:00:34;;;;;;;9.93;3.92;;;;;;;4.36;69.14;100591.56;5044347;28;20525;-71
2021/12/20 10:03:23;;;;;;;6.18;3.80;;;;;;;4.22;68.51;100598.38;5043156;28;20061;-72
2021/12/20 10:06:09;;;;;;;7.65;4.10;;;;;;;4.07;68.39;100598.34;5036456;28;20044;-71
2021/12/20 10:08:58;;;;;;;9.95;3.78;;;;;;;4.02;68.34;100593.66;5043751;28;20120;-72
2021/12/20 10:11:43;;;;;;;7.15;3.58;;;;;;;3.93;67.64;100591.31;5036694;28;20083;-74
2021/12/20 10:14:29;;;;;;;6.93;3.60;;;;;;;3.91;68.10;100596.69;5043201;28;20049;-72
2021/12/20 10:17:15;;;;;;;8.25;3.53;;;;;;;3.89;67.81;100593.44;5034385;28;20116;-73
2021/12/20 10:20:17;;;;;;;5.18;2.97;;;;;;;3.84;66.62;100593.16;5037408;28;20076;-73
2021/12/20 10:23:12;;;;;;;9.95;3.33;;;;;;;3.73;68.15;100586.56;5042590;28;20033;-73
2021/12/20 10:26:12;;;;;;;8.00;3.58;;;;;;;3.79;67.81;100596.28;5050568;28;20033;-73
2021/12/20 10:28:58;;;;;;;8.98;2.85;;;;;;;3.60;67.47;100573.34;5046552;28;20072;-73
2021/12/20 10:31:44;;;;;;;7.25;2.80;;;;;;;3.62;67.24;100584.41;5042220;28;20093;-74
2021/12/20 10:34:35;;;;;;;5.18;2.75;;;;;;;3.56;67.09;100575.47;5050276;28;20029;-73
2021/12/20 10:37:38;;;;;;;7.72;3.10;;;;;;;3.63;68.12;100589.41;5038133;28;20064;-73
2021/12/20 10:40:24;;;;;;;5.38;3.00;;;;;;;3.61;66.84;100561.94;5044831;28;20495;-73
2021/12/20 10:43:14;;;;;;;13.75;4.28;;;;;;;3.68;67.97;100560.25;5041036;28;20488;-73
2021/12/20 10:46:18;;;;;;;13.45;4.18;;;;;;;3.85;66.58;100573.94;5034045;28;20147;-73
2021/12/20 10:49:10;;;;;;;6.82;4.00;;;;;;;3.80;66.37;100550.22;5042005;28;20098;-73
2021/12/20 10:51:59;;;;;;;4.82;2.90;;;;;;;3.95;65.69;100558.88;5043441;28;20044;-73
2021/12/20 10:54:45;;;;;;;7.07;3.80;;;;;;;4.03;65.05;100560.59;5038245;28;20116;-73
2021/12/20 10:57:31;;;;;;;9.30;3.03;;;;;;;4.11;65.56;100565.72;5048912;28;20506;-73
2021/12/20 11:00:21;;;;;;;7.90;3.83;;;;;;;4.09;65.66;100566.88;5046590;28;20064;-73
2021/12/20 11:03:28;;;;;;;9.35;3.55;;;;;;;4.24;65.47;100575.53;5036261;28;20099;-72
2021/12/20 11:09:15;;;;;;;12.10;3.67;;;;;;;4.56;65.42;100587.41;5042071;28;20475;-73
2021/12/20 11:12:04;;;;;;;8.82;4.47;;;;;;;4.48;64.56;100570.06;5042744;28;20044;-73
2021/12/20 11:14:53;;;;;;;14.10;5.07;;;;;;;4.47;65.03;100586.66;5040162;28;20037;-72
2021/12/20 11:17:45;;;;;;;14.43;4.57;;;;;;;4.42;65.14;100569.97;5035850;28;20029;-71
2021/12/20 11:20:30;;;;;;;10.07;3.80;;;;;;;4.53;65.20;100592.19;5037281;28;20116;-72
2021/12/20 11:23:26;;;;;;;15.90;4.50;;;;;;;4.44;64.30;100581.81;5035469;28;20053;-73
2021/12/20 11:26:12;;;;;;;7.47;3.88;;;;;;;4.36;63.94;100583.72;5058379;28;20518;-73
2021/12/20 11:28:57;;;;;;;7.63;4.15;;;;;;;4.47;64.69;100597.09;5039049;28;20071;-73
2021/12/20 11:31:45;;;;;;;7.43;4.20;;;;;;;4.43;64.61;100595.88;5048425;28;20032;-72
2021/12/20 11:34:32;;;;;;;9.68;3.47;;;;;;;4.41;64.13;100592.63;5038026;28;20679;-73
2021/12/20 11:37:22;;;;;;;7.30;3.70;;;;;;;4.42;64.48;100593.44;5035490;28;20025;-73
2021/12/20 11:40:10;;;;;;;13.80;5.38;;;;;;;4.50;64.50;100600.34;5043751;28;20650;-73
2021/12/20 11:42:56;;;;;;;13.05;4.78;;;;;;;4.39;64.66;100583.38;5038451;28;20470;-73
2021/12/20 11:45:42;;;;;;;6.35;3.35;;;;;;;4.44;64.69;100597.47;5039573;28;20041;-73
2021/12/20 11:48:29;;;;;;;8.57;3.15;;;;;;;4.46;64.01;100592.09;5042445;28;20047;-73
2021/12/20 11:51:15;;;;;;;7.15;2.80;;;;;;;4.36;63.41;100594.16;5038168;28;20407;-73
2021/12/20 11:54:00;;;;;;;6.18;3.15;;;;;;;4.35;63.34;100585.50;5047357;28;20084;-73
2021/12/20 11:56:46;;;;;;;22.60;5.05;;;;;;;4.14;63.44;100547.13;5051874;28;20032;-74
2021/12/20 11:59:53;;;;;;;10.55;3.28;;;;;;;4.34;63.28;100581.28;5048038;28;20072;-73
2021/12/20 12:02:43;;;;;;;9.32;3.30;;;;;;;4.43;62.64;100588.03;5050733;28;20163;-73
2021/12/20 12:05:31;;;;;;;;;;;;;;;4.50;61.79;100585.50;5035116;28;20075;-73
2021/12/20 12:08:31;;;;;;;8.32;3.28;;;;;;;4.54;62.04;100576.34;5033005;28;19921;-74
2021/12/20 12:11:17;;;;;;;17.65;9.48;;;;;;;4.62;61.96;100586.69;5037923;28;20044;-73
2021/12/20 12:14:18;;;;;;;8.80;4.55;;;;;;;4.78;62.31;100590.09;5035732;28;20033;-73
2021/12/20 12:17:09;;;;;;;6.00;3.13;;;;;;;4.76;61.41;100590.25;5035558;28;20041;-73
2021/12/20 12:19:54;;;;;;;6.95;2.80;;;;;;;4.73;62.14;100595.03;5047501;28;20091;-73
2021/12/20 12:22:43;;;;;;;6.00;3.08;;;;;;;4.58;61.51;100589.84;5039769;28;20074;-73
2021/12/20 12:25:39;;;;;;;10.32;3.38;;;;;;;4.60;62.72;100612.13;5036037;28;20037;-73
2021/12/20 12:28:28;;;;;;;7.22;3.10;;;;;;;4.52;62.51;100598.38;5045045;28;20048;-71
2021/12/20 12:31:14;;;;;;;11.35;4.00;;;;;;;4.42;62.20;100599.44;5041530;28;20398;-74
2021/12/20 12:34:05;;;;;;;7.95;3.90;;;;;;;4.40;62.05;100614.44;5036825;28;20033;-73
2021/12/20 12:37:16;;;;;;;9.40;3.80;;;;;;;4.40;62.45;100613.66;5047436;28;20059;-74
2021/12/20 12:40:26;;;;;;;12.27;4.13;;;;;;;4.28;61.83;100597.63;5037789;28;20704;-74
2021/12/20 12:43:15;;;;;;;10.23;4.20;;;;;;;4.21;62.09;100597.56;5035906;28;20438;-74
2021/12/20 12:46:03;;;;;;;8.82;3.97;;;;;;;4.16;62.13;100594.66;5037403;28;20052;-73
2021/12/20 12:48:50;;;;;;;9.35;4.20;;;;;;;4.25;62.30;100590.19;5045633;28;20040;-74
2021/12/20 12:51:40;;;;;;;13.30;3.28;;;;;;;4.24;61.84;100599.81;5043348;28;20032;-74
2021/12/20 12:54:45;;;;;;;7.13;3.70;;;;;;;4.29;62.49;100614.09;5055949;28;20438;-74
2021/12/20 12:57:37;;;;;;;7.35;3.42;;;;;;;4.26;63.00;100610.88;5041707;28;20029;-74
2021/12/20 13:00:29;;;;;;;9.23;4.13;;;;;;;4.19;62.32;100599.53;5043671;28;20038;-74
2021/12/20 13:03:15;;;;;;;7.45;4.20;;;;;;;4.21;62.22;100599.34;5042646;28;20056;-74
2021/12/20 13:06:01;;;;;;;16.75;6.22;;;;;;;4.25;62.16;100605.81;5042568;28;20025;-73
2021/12/20 13:08:52;;;;;;;12.95;4.75;;;;;;;4.27;61.79;100606.47;5042995;28;20037;-73
2021/12/20 13:11:37;;;;;;;14.57;4.53;;;;;;;4.25;61.86;100617.06;5043958;28;20132;-73
2021/12/20 13:14:23;;;;;;;11.68;4.28;;;;;;;4.20;61.38;100626.41;5039786;28;20024;-75
2021/12/20 13:17:09;;;;;;;10.65;4.90;;;;;;;4.21;61.29;100628.00;5040050;28;20029;-74
2021/12/20 13:20:19;;;;;;;9.88;3.95;;;;;;;4.14;61.13;100621.88;5041279;28;20041;-74
2021/12/20 13:23:46;;;;;;;10.38;4.40;;;;;;;4.08;60.02;100612.97;5041237;28;20064;-74